createdAt,value
2022-08-07T00:04:06.705Z,58.30
2022-08-07T00:09:17.134Z,58.30
2022-08-07T00:14:30.326Z,58.70
2022-08-07T00:20:00.109Z,58.80
2022-08-07T00:24:54.357Z,58.80
2022-08-07T00:29:56.141Z,58.80
2022-08-07T00:34:58.431Z,59.10
2022-08-07T00:40:00.279Z,58.90
2022-08-07T00:45:02.443Z,59.00
2022-08-07T00:50:21.486Z,59.20
2022-08-07T00:56:00.185Z,59.30
2022-08-07T01:00:54.282Z,59.30
2022-08-07T01:05:56.657Z,59.30
2022-08-07T01:10:58.530Z,59.00
2022-08-07T01:16:30.349Z,58.90
2022-08-07T01:21:33.119Z,58.90
2022-08-07T01:26:39.381Z,59.30
2022-08-07T01:31:46.179Z,59.80
2022-08-07T01:36:57.923Z,60.00
2022-08-07T01:42:36.919Z,60.00
2022-08-07T01:48:29.674Z,60.30
2022-08-07T01:52:54.906Z,60.60
2022-08-07T01:58:05.858Z,60.90
2022-08-07T02:03:26.460Z,61.00
2022-08-07T02:08:40.409Z,61.50
2022-08-07T02:13:56.480Z,61.90
2022-08-07T02:19:05.784Z,61.90
2022-08-07T02:24:29.923Z,62.10
2022-08-07T02:29:33.060Z,62.10
2022-08-07T02:34:48.793Z,62.40
2022-08-07T02:40:09.187Z,63.40
2022-08-07T02:45:58.635Z,63.20
2022-08-07T02:50:46.122Z,63.20
2022-08-07T02:56:04.446Z,63.00
2022-08-07T03:01:18.689Z,63.10
2022-08-07T03:06:25.833Z,63.00
2022-08-07T03:11:38.588Z,63.30
2022-08-07T03:16:43.169Z,63.30
2022-08-07T03:21:50.604Z,63.40
2022-08-07T03:26:58.610Z,63.30
2022-08-07T03:32:04.559Z,63.60
2022-08-07T03:37:12.408Z,63.90
2022-08-07T03:42:18.924Z,63.80
2022-08-07T03:47:23.039Z,63.70
2022-08-07T03:52:28.123Z,64.00
2022-08-07T03:58:33.725Z,64.20
2022-08-07T04:02:57.841Z,64.60
2022-08-07T04:08:09.523Z,64.50
2022-08-07T04:13:15.383Z,63.60
2022-08-07T04:18:58.220Z,63.40
2022-08-07T04:23:43.920Z,63.50
2022-08-07T04:29:07.668Z,63.50
2022-08-07T04:34:16.586Z,63.70
2022-08-07T04:39:25.427Z,63.50
2022-08-07T04:44:28.890Z,63.20
2022-08-07T04:50:22.672Z,63.10
2022-08-07T04:58:13.687Z,61.60
2022-08-07T05:01:30.204Z,56.40
2022-08-07T05:06:51.805Z,53.40
2022-08-07T05:12:02.320Z,51.80
2022-08-07T05:17:11.733Z,51.20
2022-08-07T05:22:26.766Z,48.90
2022-08-07T05:28:02.894Z,48.20
2022-08-07T05:32:57.022Z,47.50
2022-08-07T05:38:09.090Z,46.80
2022-08-07T05:43:13.373Z,46.00
2022-08-07T05:48:19.570Z,45.70
2022-08-07T05:54:13.096Z,44.90
2022-08-07T05:58:52.715Z,45.20
2022-08-07T06:04:01.247Z,45.40
2022-08-07T06:09:10.950Z,45.70
2022-08-07T06:14:21.021Z,45.30
2022-08-07T06:19:57.591Z,45.80
2022-08-07T06:24:58.391Z,45.70
2022-08-07T06:30:04.181Z,46.70
2022-08-07T06:35:17.733Z,45.30
2022-08-07T06:40:21.297Z,45.30
2022-08-07T06:45:27.883Z,44.30
2022-08-07T06:50:39.656Z,45.10
2022-08-07T06:56:00.451Z,44.20
2022-08-07T07:01:09.183Z,43.90
2022-08-07T07:06:11.651Z,43.20
2022-08-07T07:12:09.131Z,43.50
2022-08-07T07:16:49.550Z,42.70
2022-08-07T07:22:04.909Z,41.10
2022-08-07T07:27:16.307Z,41.90
2022-08-07T07:32:19.513Z,42.40
2022-08-07T07:37:44.517Z,43.30
2022-08-07T07:42:54.223Z,42.50
2022-08-07T07:47:59.041Z,42.40
2022-08-07T07:53:02.274Z,41.30
2022-08-07T07:58:04.925Z,41.40
2022-08-07T08:03:17.077Z,41.70
2022-08-07T08:08:39.410Z,42.20
2022-08-07T08:13:54.165Z,42.60
2022-08-07T08:19:00.463Z,42.60
2022-08-07T08:24:45.730Z,43.10
2022-08-07T08:30:03.765Z,42.70
2022-08-07T08:35:08.373Z,41.90
2022-08-07T08:40:23.395Z,42.30
2022-08-07T08:46:01.702Z,42.20
2022-08-07T08:51:49.717Z,42.10
2022-08-07T08:56:51.156Z,41.40
2022-08-07T09:02:36.567Z,41.20
2022-08-07T09:08:04.761Z,41.40
2022-08-07T09:13:37.969Z,41.00
2022-08-07T09:18:52.898Z,40.90
2022-08-07T09:24:32.366Z,41.30
2022-08-07T09:30:04.152Z,41.60
2022-08-07T09:36:01.030Z,42.20
2022-08-07T09:41:15.518Z,43.30
2022-08-07T09:47:52.419Z,42.70
2022-08-07T09:52:34.208Z,41.00
2022-08-07T09:57:52.277Z,40.90
2022-08-07T10:04:05.432Z,40.40
2022-08-07T10:08:49.724Z,41.20
2022-08-07T10:14:23.091Z,41.00
2022-08-07T10:20:00.624Z,40.50
2022-08-07T10:25:42.895Z,41.40
2022-08-07T10:31:17.737Z,39.10
2022-08-07T10:36:47.568Z,41.30
2022-08-07T10:42:09.753Z,40.90
2022-08-07T10:47:53.279Z,39.00
2022-08-07T10:53:26.407Z,39.60
2022-08-07T10:59:21.188Z,39.80
2022-08-07T11:04:49.782Z,39.00
2022-08-07T11:10:08.553Z,39.10
2022-08-07T11:15:18.014Z,39.00
2022-08-07T11:20:41.580Z,37.80
2022-08-07T11:25:53.120Z,38.60
2022-08-07T11:30:59.410Z,38.80
2022-08-07T11:36:20.400Z,38.70
2022-08-07T11:42:01.714Z,38.50
2022-08-07T11:47:22.745Z,38.40
2022-08-07T11:52:47.216Z,38.90
2022-08-07T11:58:02.799Z,39.00
2022-08-07T12:03:44.763Z,39.50
2022-08-07T12:09:04.049Z,38.90
2022-08-07T12:14:21.200Z,38.40
2022-08-07T12:20:02.781Z,39.30
2022-08-07T12:26:05.799Z,38.10
2022-08-07T12:31:17.299Z,38.50
2022-08-07T12:36:33.526Z,37.40
2022-08-07T12:41:49.477Z,38.00
2022-08-07T12:47:21.757Z,37.00
2022-08-07T12:52:46.436Z,36.60
2022-08-07T12:58:00.758Z,36.90
2022-08-07T13:03:27.458Z,37.80
2022-08-07T13:08:59.783Z,38.80
2022-08-07T13:14:24.346Z,37.00
2022-08-07T13:19:52.183Z,37.60
2022-08-07T13:25:00.505Z,37.30
2022-08-07T13:30:19.535Z,37.20
2022-08-07T13:35:59.490Z,37.30
2022-08-07T13:41:12.512Z,36.50
2022-08-07T13:46:24.855Z,36.70
2022-08-07T13:52:22.783Z,36.30
2022-08-07T13:56:59.896Z,36.50
2022-08-07T14:02:10.220Z,36.60
2022-08-07T14:07:13.347Z,36.60
2022-08-07T14:12:54.162Z,36.20
2022-08-07T14:18:27.367Z,36.30
2022-08-07T14:23:31.351Z,35.90
2022-08-07T14:28:59.076Z,36.50
2022-08-07T14:34:03.756Z,35.60
2022-08-07T14:39:12.478Z,36.30
2022-08-07T14:44:33.703Z,36.20
2022-08-07T14:49:56.718Z,36.70
2022-08-07T14:55:00.576Z,36.90
2022-08-07T15:00:06.888Z,36.30
2022-08-07T15:05:20.576Z,36.50
2022-08-07T15:10:29.820Z,36.10
2022-08-07T15:21:44.378Z,36.30
2022-08-07T15:26:47.236Z,36.00
2022-08-07T15:31:58.144Z,35.80
2022-08-07T15:37:07.041Z,36.30
2022-08-07T15:42:46.534Z,36.80
2022-08-07T15:48:01.173Z,36.60
2022-08-07T15:53:17.091Z,36.90
2022-08-07T15:58:38.538Z,36.40
2022-08-07T16:03:46.349Z,36.30
2022-08-07T16:08:49.883Z,36.80
2022-08-07T16:14:09.247Z,36.90
2022-08-07T16:19:41.945Z,37.20
2022-08-07T16:24:52.707Z,37.20
2022-08-07T16:30:31.579Z,36.40
2022-08-07T16:36:18.315Z,37.20
2022-08-07T16:41:41.757Z,36.70
2022-08-07T16:47:50.909Z,37.00
2022-08-07T16:52:55.698Z,37.50
2022-08-07T16:58:08.096Z,37.40
2022-08-07T17:03:57.884Z,37.50
2022-08-07T17:09:09.442Z,36.80
2022-08-07T17:14:35.836Z,37.30
2022-08-07T17:20:01.832Z,37.50
2022-08-07T17:25:47.717Z,37.40
2022-08-07T17:30:58.596Z,38.10
2022-08-07T17:36:11.999Z,37.90
2022-08-07T17:42:04.655Z,38.10
2022-08-07T17:47:04.306Z,38.30
2022-08-07T17:52:19.396Z,38.40
2022-08-07T17:57:58.864Z,38.40
2022-08-07T18:04:03.964Z,38.80
2022-08-07T18:09:05.399Z,38.70
2022-08-07T18:14:31.301Z,38.90
2022-08-07T18:21:10.478Z,39.00
2022-08-07T18:25:19.361Z,39.30
2022-08-07T18:30:38.793Z,39.70
2022-08-07T18:36:32.835Z,40.50
2022-08-07T18:41:50.531Z,41.20
2022-08-07T18:47:22.581Z,41.80
2022-08-07T18:53:12.625Z,42.10
2022-08-07T18:58:44.133Z,43.10
2022-08-07T19:04:14.625Z,43.80
2022-08-07T19:09:56.322Z,44.40
2022-08-07T19:16:04.559Z,44.60
2022-08-07T19:21:44.009Z,44.60
2022-08-07T19:28:28.293Z,45.70
2022-08-07T19:32:26.574Z,46.00
2022-08-07T19:37:56.918Z,46.60
2022-08-07T19:42:57.656Z,47.40
2022-08-07T19:48:00.302Z,48.00
2022-08-07T19:54:33.334Z,49.00
2022-08-07T19:58:34.376Z,49.50
2022-08-07T20:03:37.219Z,49.80
2022-08-07T20:08:48.712Z,50.10
2022-08-07T20:13:56.456Z,49.70
2022-08-07T20:19:01.200Z,49.40
2022-08-07T20:24:12.160Z,49.40
2022-08-07T20:29:48.274Z,49.60
2022-08-07T20:34:50.874Z,49.50
2022-08-07T20:40:04.223Z,49.30
2022-08-07T20:45:32.621Z,49.30
2022-08-07T20:50:31.720Z,49.40
2022-08-07T20:55:37.235Z,49.60
2022-08-07T21:00:46.037Z,49.60
2022-08-07T21:05:56.136Z,49.80
2022-08-07T21:11:01.671Z,49.80
2022-08-07T21:16:06.174Z,49.70
2022-08-07T21:21:09.044Z,49.90
2022-08-07T21:26:20.431Z,49.80
2022-08-07T21:32:42.582Z,49.90
2022-08-07T21:37:25.820Z,50.10
2022-08-07T21:42:49.534Z,50.00
2022-08-07T21:48:26.849Z,50.20
2022-08-07T21:53:37.134Z,50.10
2022-08-07T21:59:15.368Z,50.20
2022-08-07T22:04:23.188Z,50.40
2022-08-07T22:09:38.178Z,50.50
2022-08-07T22:16:41.561Z,50.80
2022-08-07T22:20:56.691Z,51.00
2022-08-07T22:26:06.257Z,50.80
2022-08-07T22:31:59.035Z,50.90
2022-08-07T22:36:59.107Z,51.00
2022-08-07T22:42:18.996Z,51.20
2022-08-07T22:47:38.266Z,51.30
2022-08-07T22:52:58.582Z,51.40
2022-08-07T22:58:38.196Z,51.30
2022-08-07T23:04:03.404Z,51.50
2022-08-07T23:10:04.159Z,51.50
2022-08-07T23:16:04.854Z,51.50
2022-08-07T23:21:08.147Z,51.60
2022-08-07T23:26:18.282Z,52.00
2022-08-07T23:32:48.870Z,51.70
2022-08-07T23:38:01.127Z,52.00
2022-08-07T23:43:38.005Z,51.90
2022-08-07T23:48:58.617Z,51.60
2022-08-07T23:54:36.065Z,51.90
